sensor_id;sensor_type;location;lat;lon;timestamp;P1;durP1;ratioP1;P2;durP2;ratioP2
2257;SDS011;1136;51.574;7.706;2023-04-01T00:00:58;1.73;;;1.10;;
2257;SDS011;1136;51.574;7.706;2023-04-01T00:03:25;1.87;;;0.90;;
2257;SDS011;1136;51.574;7.706;2023-04-01T00:05:54;3.33;;;1.20;;
2257;SDS011;1136;51.574;7.706;2023-04-01T00:08:21;2.87;;;1.10;;
2257;SDS011;1136;51.574;7.706;2023-04-01T00:10:48;3.43;;;1.07;;
2257;SDS011;1136;51.574;7.706;2023-04-01T00:13:15;1.37;;;0.90;;
2257;SDS011;1136;51.574;7.706;2023-04-01T00:15:41;1.77;;;1.17;;
2257;SDS011;1136;51.574;7.706;2023-04-01T00:18:09;2.57;;;1.03;;
2257;SDS011;1136;51.574;7.706;2023-04-01T00:20:35;2.03;;;1.47;;
2257;SDS011;1136;51.574;7.706;2023-04-01T00:23:02;2.37;;;1.20;;
2257;SDS011;1136;51.574;7.706;2023-04-01T00:25:29;1.40;;;1.10;;
2257;SDS011;1136;51.574;7.706;2023-04-01T00:27:56;3.07;;;1.27;;
2257;SDS011;1136;51.574;7.706;2023-04-01T00:30:23;2.50;;;1.20;;
2257;SDS011;1136;51.574;7.706;2023-04-01T00:32:52;2.47;;;1.40;;
2257;SDS011;1136;51.574;7.706;2023-04-01T00:35:19;1.80;;;1.70;;
2257;SDS011;1136;51.574;7.706;2023-04-01T00:37:46;2.70;;;1.60;;
2257;SDS011;1136;51.574;7.706;2023-04-01T00:40:24;3.17;;;1.33;;
2257;SDS011;1136;51.574;7.706;2023-04-01T00:42:53;2.13;;;1.10;;
2257;SDS011;1136;51.574;7.706;2023-04-01T00:45:31;2.70;;;1.40;;
2257;SDS011;1136;51.574;7.706;2023-04-01T00:48:04;2.20;;;1.40;;
2257;SDS011;1136;51.574;7.706;2023-04-01T00:50:34;1.60;;;1.23;;
2257;SDS011;1136;51.574;7.706;2023-04-01T00:53:01;1.23;;;0.90;;
2257;SDS011;1136;51.574;7.706;2023-04-01T00:55:30;1.60;;;1.20;;
2257;SDS011;1136;51.574;7.706;2023-04-01T00:57:58;2.10;;;1.30;;
2257;SDS011;1136;51.574;7.706;2023-04-01T01:00:25;5.40;;;1.30;;
2257;SDS011;1136;51.574;7.706;2023-04-01T01:02:52;2.00;;;1.20;;
2257;SDS011;1136;51.574;7.706;2023-04-01T01:05:21;2.33;;;1.73;;
2257;SDS011;1136;51.574;7.706;2023-04-01T01:10:41;3.33;;;1.37;;
2257;SDS011;1136;51.574;7.706;2023-04-01T01:13:24;1.67;;;1.17;;
2257;SDS011;1136;51.574;7.706;2023-04-01T01:19:02;2.40;;;0.90;;
2257;SDS011;1136;51.574;7.706;2023-04-01T01:35:13;3.33;;;1.03;;
2257;SDS011;1136;51.574;7.706;2023-04-01T01:37:40;1.20;;;1.10;;
2257;SDS011;1136;51.574;7.706;2023-04-01T01:40:09;1.83;;;1.00;;
2257;SDS011;1136;51.574;7.706;2023-04-01T01:42:38;1.63;;;1.40;;
2257;SDS011;1136;51.574;7.706;2023-04-01T01:45:07;1.30;;;1.20;;
2257;SDS011;1136;51.574;7.706;2023-04-01T01:47:35;1.30;;;1.20;;
2257;SDS011;1136;51.574;7.706;2023-04-01T01:50:02;1.40;;;1.30;;
2257;SDS011;1136;51.574;7.706;2023-04-01T01:52:31;1.90;;;1.37;;
2257;SDS011;1136;51.574;7.706;2023-04-01T01:54:57;1.57;;;1.47;;
2257;SDS011;1136;51.574;7.706;2023-04-01T01:57:34;1.47;;;1.37;;
2257;SDS011;1136;51.574;7.706;2023-04-01T02:00:07;1.77;;;1.40;;
2257;SDS011;1136;51.574;7.706;2023-04-01T02:02:40;2.20;;;1.20;;
2257;SDS011;1136;51.574;7.706;2023-04-01T02:05:08;1.97;;;1.20;;
2257;SDS011;1136;51.574;7.706;2023-04-01T02:07:36;1.60;;;1.10;;
2257;SDS011;1136;51.574;7.706;2023-04-01T02:10:05;1.20;;;1.10;;
2257;SDS011;1136;51.574;7.706;2023-04-01T02:12:32;1.27;;;1.17;;
2257;SDS011;1136;51.574;7.706;2023-04-01T02:15:03;3.23;;;1.27;;
2257;SDS011;1136;51.574;7.706;2023-04-01T02:17:32;2.13;;;1.30;;
2257;SDS011;1136;51.574;7.706;2023-04-01T02:22:41;1.57;;;1.47;;
2257;SDS011;1136;51.574;7.706;2023-04-01T02:25:13;2.37;;;1.17;;
2257;SDS011;1136;51.574;7.706;2023-04-01T02:27:42;1.87;;;1.50;;
2257;SDS011;1136;51.574;7.706;2023-04-01T02:30:10;1.70;;;1.50;;
2257;SDS011;1136;51.574;7.706;2023-04-01T02:32:38;3.83;;;1.30;;
2257;SDS011;1136;51.574;7.706;2023-04-01T02:35:06;2.27;;;1.30;;
2257;SDS011;1136;51.574;7.706;2023-04-01T02:37:34;1.50;;;1.30;;
2257;SDS011;1136;51.574;7.706;2023-04-01T02:40:04;1.77;;;1.10;;
2257;SDS011;1136;51.574;7.706;2023-04-01T02:42:33;1.00;;;0.90;;
2257;SDS011;1136;51.574;7.706;2023-04-01T02:45:00;3.33;;;1.30;;
2257;SDS011;1136;51.574;7.706;2023-04-01T02:47:27;1.83;;;1.23;;
2257;SDS011;1136;51.574;7.706;2023-04-01T02:49:54;5.23;;;0.90;;
2257;SDS011;1136;51.574;7.706;2023-04-01T02:52:24;2.70;;;1.23;;
2257;SDS011;1136;51.574;7.706;2023-04-01T02:54:51;2.17;;;0.90;;
2257;SDS011;1136;51.574;7.706;2023-04-01T02:57:18;2.50;;;1.10;;
2257;SDS011;1136;51.574;7.706;2023-04-01T02:59:44;1.40;;;1.17;;
2257;SDS011;1136;51.574;7.706;2023-04-01T03:02:11;1.40;;;1.30;;
2257;SDS011;1136;51.574;7.706;2023-04-01T03:04:38;1.97;;;1.00;;
2257;SDS011;1136;51.574;7.706;2023-04-01T03:07:04;1.10;;;1.10;;
2257;SDS011;1136;51.574;7.706;2023-04-01T03:09:31;7.10;;;1.07;;
2257;SDS011;1136;51.574;7.706;2023-04-01T03:11:58;1.10;;;1.00;;
2257;SDS011;1136;51.574;7.706;2023-04-01T03:14:25;1.53;;;1.10;;
2257;SDS011;1136;51.574;7.706;2023-04-01T03:16:51;3.30;;;1.20;;
2257;SDS011;1136;51.574;7.706;2023-04-01T03:19:18;0.87;;;0.87;;
2257;SDS011;1136;51.574;7.706;2023-04-01T03:21:44;2.40;;;1.13;;
2257;SDS011;1136;51.574;7.706;2023-04-01T03:24:11;3.90;;;1.20;;
2257;SDS011;1136;51.574;7.706;2023-04-01T03:26:38;1.07;;;0.90;;
2257;SDS011;1136;51.574;7.706;2023-04-01T03:29:04;0.80;;;0.80;;
2257;SDS011;1136;51.574;7.706;2023-04-01T03:31:31;1.53;;;0.90;;
2257;SDS011;1136;51.574;7.706;2023-04-01T03:33:57;1.40;;;1.07;;
2257;SDS011;1136;51.574;7.706;2023-04-01T03:36:24;1.00;;;0.90;;
2257;SDS011;1136;51.574;7.706;2023-04-01T03:38:50;1.03;;;0.80;;
2257;SDS011;1136;51.574;7.706;2023-04-01T03:41:17;0.80;;;0.80;;
2257;SDS011;1136;51.574;7.706;2023-04-01T03:43:44;1.20;;;0.80;;
2257;SDS011;1136;51.574;7.706;2023-04-01T03:46:16;0.97;;;0.87;;
2257;SDS011;1136;51.574;7.706;2023-04-01T03:48:43;1.60;;;0.90;;
2257;SDS011;1136;51.574;7.706;2023-04-01T03:51:10;1.77;;;0.80;;
2257;SDS011;1136;51.574;7.706;2023-04-01T03:53:36;1.30;;;0.90;;
2257;SDS011;1136;51.574;7.706;2023-04-01T03:56:04;1.10;;;1.00;;
2257;SDS011;1136;51.574;7.706;2023-04-01T03:58:32;3.13;;;0.70;;
2257;SDS011;1136;51.574;7.706;2023-04-01T04:00:59;0.73;;;0.73;;
2257;SDS011;1136;51.574;7.706;2023-04-01T04:03:25;0.70;;;0.70;;
2257;SDS011;1136;51.574;7.706;2023-04-01T04:05:53;1.10;;;1.00;;
2257;SDS011;1136;51.574;7.706;2023-04-01T04:08:19;1.10;;;0.80;;
2257;SDS011;1136;51.574;7.706;2023-04-01T04:10:47;1.10;;;1.00;;
2257;SDS011;1136;51.574;7.706;2023-04-01T04:13:21;2.30;;;0.90;;
2257;SDS011;1136;51.574;7.706;2023-04-01T04:15:48;2.20;;;0.87;;
2257;SDS011;1136;51.574;7.706;2023-04-01T04:18:14;2.30;;;1.00;;
2257;SDS011;1136;51.574;7.706;2023-04-01T04:20:44;1.83;;;0.93;;
2257;SDS011;1136;51.574;7.706;2023-04-01T04:23:14;1.10;;;1.00;;
2257;SDS011;1136;51.574;7.706;2023-04-01T04:25:41;1.17;;;0.97;;
2257;SDS011;1136;51.574;7.706;2023-04-01T04:28:07;2.57;;;1.10;;
2257;SDS011;1136;51.574;7.706;2023-04-01T04:30:34;1.37;;;0.90;;
2257;SDS011;1136;51.574;7.706;2023-04-01T04:33:01;1.00;;;0.70;;
2257;SDS011;1136;51.574;7.706;2023-04-01T04:35:27;2.20;;;0.97;;
2257;SDS011;1136;51.574;7.706;2023-04-01T04:37:54;1.43;;;0.80;;
2257;SDS011;1136;51.574;7.706;2023-04-01T04:40:21;0.90;;;0.90;;
2257;SDS011;1136;51.574;7.706;2023-04-01T04:42:47;0.90;;;0.90;;
2257;SDS011;1136;51.574;7.706;2023-04-01T04:45:14;1.00;;;0.80;;
2257;SDS011;1136;51.574;7.706;2023-04-01T04:47:40;1.50;;;1.40;;
2257;SDS011;1136;51.574;7.706;2023-04-01T04:50:08;1.30;;;1.20;;
2257;SDS011;1136;51.574;7.706;2023-04-01T04:52:35;1.93;;;1.00;;
2257;SDS011;1136;51.574;7.706;2023-04-01T04:55:01;2.07;;;1.07;;
2257;SDS011;1136;51.574;7.706;2023-04-01T04:57:28;3.23;;;0.90;;
2257;SDS011;1136;51.574;7.706;2023-04-01T04:59:54;1.20;;;1.10;;
2257;SDS011;1136;51.574;7.706;2023-04-01T05:02:21;2.10;;;1.27;;
2257;SDS011;1136;51.574;7.706;2023-04-01T05:04:48;1.17;;;1.10;;
2257;SDS011;1136;51.574;7.706;2023-04-01T05:07:14;1.40;;;1.30;;
2257;SDS011;1136;51.574;7.706;2023-04-01T05:09:41;2.40;;;1.43;;
2257;SDS011;1136;51.574;7.706;2023-04-01T05:12:07;1.57;;;1.47;;
2257;SDS011;1136;51.574;7.706;2023-04-01T05:14:34;2.27;;;1.07;;
2257;SDS011;1136;51.574;7.706;2023-04-01T05:17:00;3.13;;;1.13;;
2257;SDS011;1136;51.574;7.706;2023-04-01T05:19:27;2.97;;;1.77;;
2257;SDS011;1136;51.574;7.706;2023-04-01T05:21:54;1.40;;;1.30;;
2257;SDS011;1136;51.574;7.706;2023-04-01T05:24:20;2.40;;;1.60;;
2257;SDS011;1136;51.574;7.706;2023-04-01T05:26:47;3.57;;;1.40;;
2257;SDS011;1136;51.574;7.706;2023-04-01T05:29:13;2.47;;;1.50;;
2257;SDS011;1136;51.574;7.706;2023-04-01T05:31:40;1.80;;;1.70;;
2257;SDS011;1136;51.574;7.706;2023-04-01T05:34:07;1.40;;;1.33;;
2257;SDS011;1136;51.574;7.706;2023-04-01T05:36:34;1.83;;;1.73;;
2257;SDS011;1136;51.574;7.706;2023-04-01T05:39:01;2.23;;;1.60;;
2257;SDS011;1136;51.574;7.706;2023-04-01T05:41:29;4.73;;;1.70;;
2257;SDS011;1136;51.574;7.706;2023-04-01T05:43:56;1.70;;;1.60;;
2257;SDS011;1136;51.574;7.706;2023-04-01T05:46:22;1.93;;;1.50;;
2257;SDS011;1136;51.574;7.706;2023-04-01T05:48:49;2.70;;;1.40;;
2257;SDS011;1136;51.574;7.706;2023-04-01T05:51:15;2.00;;;1.30;;
2257;SDS011;1136;51.574;7.706;2023-04-01T05:53:42;2.27;;;2.07;;
2257;SDS011;1136;51.574;7.706;2023-04-01T05:56:09;1.43;;;1.37;;
2257;SDS011;1136;51.574;7.706;2023-04-01T05:58:36;1.60;;;1.50;;
2257;SDS011;1136;51.574;7.706;2023-04-01T06:01:04;1.60;;;1.50;;
2257;SDS011;1136;51.574;7.706;2023-04-01T06:03:40;1.70;;;1.60;;
2257;SDS011;1136;51.574;7.706;2023-04-01T06:06:23;1.70;;;1.60;;
2257;SDS011;1136;51.574;7.706;2023-04-01T06:08:52;1.77;;;1.67;;
2257;SDS011;1136;51.574;7.706;2023-04-01T06:11:25;1.60;;;1.50;;
2257;SDS011;1136;51.574;7.706;2023-04-01T06:25:38;2.80;;;1.40;;
2257;SDS011;1136;51.574;7.706;2023-04-01T06:47:54;2.60;;;1.80;;
2257;SDS011;1136;51.574;7.706;2023-04-01T06:50:26;2.27;;;1.67;;
2257;SDS011;1136;51.574;7.706;2023-04-01T06:53:03;2.00;;;1.67;;
2257;SDS011;1136;51.574;7.706;2023-04-01T06:55:40;1.83;;;1.73;;
2257;SDS011;1136;51.574;7.706;2023-04-01T06:58:19;1.50;;;1.40;;
2257;SDS011;1136;51.574;7.706;2023-04-01T07:00:48;2.60;;;1.30;;
2257;SDS011;1136;51.574;7.706;2023-04-01T07:03:29;1.50;;;1.40;;
2257;SDS011;1136;51.574;7.706;2023-04-01T07:06:03;1.47;;;1.37;;
2257;SDS011;1136;51.574;7.706;2023-04-01T07:08:33;1.50;;;1.40;;
2257;SDS011;1136;51.574;7.706;2023-04-01T07:11:03;1.53;;;1.20;;
2257;SDS011;1136;51.574;7.706;2023-04-01T07:13:34;1.53;;;1.43;;
2257;SDS011;1136;51.574;7.706;2023-04-01T07:16:11;1.40;;;1.30;;
2257;SDS011;1136;51.574;7.706;2023-04-01T07:21:36;2.43;;;1.50;;
2257;SDS011;1136;51.574;7.706;2023-04-01T07:24:13;1.50;;;1.40;;
2257;SDS011;1136;51.574;7.706;2023-04-01T07:26:43;1.50;;;1.40;;
2257;SDS011;1136;51.574;7.706;2023-04-01T07:29:12;1.60;;;1.50;;
2257;SDS011;1136;51.574;7.706;2023-04-01T07:39:44;1.70;;;1.60;;
2257;SDS011;1136;51.574;7.706;2023-04-01T07:56:11;2.80;;;1.43;;
2257;SDS011;1136;51.574;7.706;2023-04-01T08:01:52;2.43;;;1.47;;
2257;SDS011;1136;51.574;7.706;2023-04-01T08:04:35;1.57;;;1.47;;
2257;SDS011;1136;51.574;7.706;2023-04-01T08:07:22;1.60;;;1.30;;
2257;SDS011;1136;51.574;7.706;2023-04-01T08:15:37;1.67;;;1.57;;
2257;SDS011;1136;51.574;7.706;2023-04-01T08:21:00;1.30;;;1.20;;
2257;SDS011;1136;51.574;7.706;2023-04-01T08:23:38;1.40;;;1.30;;
2257;SDS011;1136;51.574;7.706;2023-04-01T08:31:25;1.30;;;1.20;;
2257;SDS011;1136;51.574;7.706;2023-04-01T08:33:57;1.63;;;1.53;;
2257;SDS011;1136;51.574;7.706;2023-04-01T08:36:28;2.80;;;1.13;;
2257;SDS011;1136;51.574;7.706;2023-04-01T08:39:03;1.30;;;1.20;;
2257;SDS011;1136;51.574;7.706;2023-04-01T08:44:37;3.33;;;1.50;;
2257;SDS011;1136;51.574;7.706;2023-04-01T09:13:15;1.60;;;1.50;;
2257;SDS011;1136;51.574;7.706;2023-04-01T09:38:23;1.77;;;1.67;;
2257;SDS011;1136;51.574;7.706;2023-04-01T09:41:05;1.77;;;1.33;;
2257;SDS011;1136;51.574;7.706;2023-04-01T10:14:30;2.50;;;2.37;;
2257;SDS011;1136;51.574;7.706;2023-04-01T10:19:40;2.33;;;2.13;;
2257;SDS011;1136;51.574;7.706;2023-04-01T10:22:37;2.50;;;2.30;;
2257;SDS011;1136;51.574;7.706;2023-04-01T10:59:04;3.93;;;3.73;;
2257;SDS011;1136;51.574;7.706;2023-04-01T11:01:47;4.70;;;4.40;;
2257;SDS011;1136;51.574;7.706;2023-04-01T11:13:13;4.47;;;4.07;;
2257;SDS011;1136;51.574;7.706;2023-04-01T11:16:34;3.67;;;3.43;;
2257;SDS011;1136;51.574;7.706;2023-04-01T11:32:31;4.10;;;3.80;;
2257;SDS011;1136;51.574;7.706;2023-04-01T11:35:17;4.20;;;3.80;;
2257;SDS011;1136;51.574;7.706;2023-04-01T11:46:12;3.90;;;3.60;;
2257;SDS011;1136;51.574;7.706;2023-04-01T12:09:09;3.60;;;3.30;;
2257;SDS011;1136;51.574;7.706;2023-04-01T12:22:34;3.90;;;3.70;;
2257;SDS011;1136;51.574;7.706;2023-04-01T12:28:14;3.37;;;3.17;;
2257;SDS011;1136;51.574;7.706;2023-04-01T12:36:57;4.17;;;3.83;;
2257;SDS011;1136;51.574;7.706;2023-04-01T12:41:58;4.43;;;4.10;;
2257;SDS011;1136;51.574;7.706;2023-04-01T13:08:17;4.30;;;4.00;;
2257;SDS011;1136;51.574;7.706;2023-04-01T13:16:16;4.53;;;4.13;;
2257;SDS011;1136;51.574;7.706;2023-04-01T13:29:16;3.73;;;3.43;;
2257;SDS011;1136;51.574;7.706;2023-04-01T13:40:30;5.33;;;4.90;;
2257;SDS011;1136;51.574;7.706;2023-04-01T13:43:09;6.40;;;5.80;;
2257;SDS011;1136;51.574;7.706;2023-04-01T13:46:05;9.00;;;7.20;;
2257;SDS011;1136;51.574;7.706;2023-04-01T13:54:56;8.67;;;7.73;;
2257;SDS011;1136;51.574;7.706;2023-04-01T14:00:55;8.27;;;7.50;;
2257;SDS011;1136;51.574;7.706;2023-04-01T14:03:44;8.60;;;7.90;;
2257;SDS011;1136;51.574;7.706;2023-04-01T14:11:25;7.37;;;6.67;;
2257;SDS011;1136;51.574;7.706;2023-04-01T14:17:19;7.23;;;6.53;;
2257;SDS011;1136;51.574;7.706;2023-04-01T14:32:06;7.20;;;6.70;;
2257;SDS011;1136;51.574;7.706;2023-04-01T14:50:14;6.27;;;5.20;;
2257;SDS011;1136;51.574;7.706;2023-04-01T14:52:58;6.63;;;6.10;;
2257;SDS011;1136;51.574;7.706;2023-04-01T14:58:08;7.40;;;6.83;;
2257;SDS011;1136;51.574;7.706;2023-04-01T15:03:14;8.37;;;7.67;;
2257;SDS011;1136;51.574;7.706;2023-04-01T15:19:43;6.83;;;6.20;;
2257;SDS011;1136;51.574;7.706;2023-04-01T15:36:29;6.27;;;5.70;;
2257;SDS011;1136;51.574;7.706;2023-04-01T15:39:30;6.90;;;5.80;;
2257;SDS011;1136;51.574;7.706;2023-04-01T15:47:34;7.00;;;6.40;;
2257;SDS011;1136;51.574;7.706;2023-04-01T16:06:16;9.00;;;8.10;;
2257;SDS011;1136;51.574;7.706;2023-04-01T16:11:53;10.00;;;9.00;;
2257;SDS011;1136;51.574;7.706;2023-04-01T16:17:38;10.37;;;9.43;;
2257;SDS011;1136;51.574;7.706;2023-04-01T16:20:20;11.47;;;10.40;;
2257;SDS011;1136;51.574;7.706;2023-04-01T16:22:53;12.13;;;11.03;;
2257;SDS011;1136;51.574;7.706;2023-04-01T16:25:28;12.17;;;11.03;;
2257;SDS011;1136;51.574;7.706;2023-04-01T16:28:21;13.40;;;12.17;;
2257;SDS011;1136;51.574;7.706;2023-04-01T16:34:10;14.20;;;12.80;;
2257;SDS011;1136;51.574;7.706;2023-04-01T16:42:39;15.50;;;13.87;;
2257;SDS011;1136;51.574;7.706;2023-04-01T16:48:20;16.93;;;15.13;;
2257;SDS011;1136;51.574;7.706;2023-04-01T16:50:51;16.77;;;15.07;;
2257;SDS011;1136;51.574;7.706;2023-04-01T16:58:56;17.53;;;15.70;;
2257;SDS011;1136;51.574;7.706;2023-04-01T17:01:26;18.40;;;15.30;;
2257;SDS011;1136;51.574;7.706;2023-04-01T17:04:00;16.80;;;15.10;;
2257;SDS011;1136;51.574;7.706;2023-04-01T17:06:49;17.50;;;14.20;;
2257;SDS011;1136;51.574;7.706;2023-04-01T17:09:47;16.80;;;15.20;;
2257;SDS011;1136;51.574;7.706;2023-04-01T17:15:05;15.57;;;13.90;;
2257;SDS011;1136;51.574;7.706;2023-04-01T17:17:43;14.77;;;13.27;;
2257;SDS011;1136;51.574;7.706;2023-04-01T17:25:47;16.30;;;14.70;;
2257;SDS011;1136;51.574;7.706;2023-04-01T17:45:11;11.43;;;10.40;;
2257;SDS011;1136;51.574;7.706;2023-04-01T18:01:45;17.00;;;15.50;;
2257;SDS011;1136;51.574;7.706;2023-04-01T18:23:36;34.93;;;28.93;;
2257;SDS011;1136;51.574;7.706;2023-04-01T18:26:13;16.50;;;14.90;;
2257;SDS011;1136;51.574;7.706;2023-04-01T18:28:50;14.47;;;12.97;;
2257;SDS011;1136;51.574;7.706;2023-04-01T18:31:21;12.80;;;11.60;;
2257;SDS011;1136;51.574;7.706;2023-04-01T18:33:56;16.00;;;14.40;;
2257;SDS011;1136;51.574;7.706;2023-04-01T18:39:13;20.53;;;17.73;;
2257;SDS011;1136;51.574;7.706;2023-04-01T18:44:46;16.93;;;13.57;;
2257;SDS011;1136;51.574;7.706;2023-04-01T18:52:45;16.53;;;14.67;;
2257;SDS011;1136;51.574;7.706;2023-04-01T19:00:20;15.27;;;13.77;;
2257;SDS011;1136;51.574;7.706;2023-04-01T19:02:50;14.40;;;12.47;;
2257;SDS011;1136;51.574;7.706;2023-04-01T19:05:23;18.40;;;16.20;;
2257;SDS011;1136;51.574;7.706;2023-04-01T19:11:01;15.97;;;13.80;;
2257;SDS011;1136;51.574;7.706;2023-04-01T19:21:27;16.43;;;14.73;;
2257;SDS011;1136;51.574;7.706;2023-04-01T19:26:39;19.30;;;17.30;;
2257;SDS011;1136;51.574;7.706;2023-04-01T19:34:25;17.00;;;15.33;;
2257;SDS011;1136;51.574;7.706;2023-04-01T19:36:56;18.53;;;16.63;;
2257;SDS011;1136;51.574;7.706;2023-04-01T19:50:46;19.37;;;16.60;;
2257;SDS011;1136;51.574;7.706;2023-04-01T19:53:19;19.77;;;16.27;;
2257;SDS011;1136;51.574;7.706;2023-04-01T19:58:52;17.60;;;15.80;;
2257;SDS011;1136;51.574;7.706;2023-04-01T20:04:26;18.07;;;16.17;;
2257;SDS011;1136;51.574;7.706;2023-04-01T20:14:51;23.60;;;21.07;;
2257;SDS011;1136;51.574;7.706;2023-04-01T20:17:21;21.53;;;19.07;;
2257;SDS011;1136;51.574;7.706;2023-04-01T20:25:14;18.27;;;15.00;;
2257;SDS011;1136;51.574;7.706;2023-04-01T20:27:51;7.13;;;6.53;;
2257;SDS011;1136;51.574;7.706;2023-04-01T20:33:53;4.80;;;4.00;;
2257;SDS011;1136;51.574;7.706;2023-04-01T20:41:12;4.67;;;4.23;;
2257;SDS011;1136;51.574;7.706;2023-04-01T20:44:02;3.53;;;3.33;;
2257;SDS011;1136;51.574;7.706;2023-04-01T20:49:21;3.90;;;3.60;;
2257;SDS011;1136;51.574;7.706;2023-04-01T21:07:37;5.20;;;4.80;;
2257;SDS011;1136;51.574;7.706;2023-04-01T21:10:23;4.90;;;4.50;;
2257;SDS011;1136;51.574;7.706;2023-04-01T21:13:01;4.60;;;4.20;;
2257;SDS011;1136;51.574;7.706;2023-04-01T21:15:31;4.20;;;3.90;;
2257;SDS011;1136;51.574;7.706;2023-04-01T21:18:26;3.70;;;3.40;;
2257;SDS011;1136;51.574;7.706;2023-04-01T21:21:13;4.13;;;3.83;;
2257;SDS011;1136;51.574;7.706;2023-04-01T21:26:38;4.10;;;3.80;;
2257;SDS011;1136;51.574;7.706;2023-04-01T21:37:44;3.43;;;3.20;;
2257;SDS011;1136;51.574;7.706;2023-04-01T21:40:34;3.20;;;3.00;;
2257;SDS011;1136;51.574;7.706;2023-04-01T21:54:20;2.80;;;2.60;;
2257;SDS011;1136;51.574;7.706;2023-04-01T22:02:55;2.90;;;2.70;;
2257;SDS011;1136;51.574;7.706;2023-04-01T22:06:16;2.70;;;2.57;;
2257;SDS011;1136;51.574;7.706;2023-04-01T22:08:51;3.33;;;2.70;;
2257;SDS011;1136;51.574;7.706;2023-04-01T22:13:57;2.83;;;2.63;;
2257;SDS011;1136;51.574;7.706;2023-04-01T22:16:45;5.63;;;2.80;;
2257;SDS011;1136;51.574;7.706;2023-04-01T22:32:52;2.93;;;2.80;;
2257;SDS011;1136;51.574;7.706;2023-04-01T22:40:25;3.50;;;2.73;;
2257;SDS011;1136;51.574;7.706;2023-04-01T22:42:56;3.27;;;2.97;;
2257;SDS011;1136;51.574;7.706;2023-04-01T22:45:31;5.57;;;3.50;;
2257;SDS011;1136;51.574;7.706;2023-04-01T22:50:40;3.03;;;2.93;;
2257;SDS011;1136;51.574;7.706;2023-04-01T22:53:19;3.00;;;2.80;;
2257;SDS011;1136;51.574;7.706;2023-04-01T22:55:56;2.97;;;2.77;;
2257;SDS011;1136;51.574;7.706;2023-04-01T22:58:34;3.30;;;3.00;;
2257;SDS011;1136;51.574;7.706;2023-04-01T23:01:05;3.40;;;3.20;;
2257;SDS011;1136;51.574;7.706;2023-04-01T23:03:34;3.67;;;3.13;;
2257;SDS011;1136;51.574;7.706;2023-04-01T23:06:05;2.87;;;2.70;;
2257;SDS011;1136;51.574;7.706;2023-04-01T23:11:26;2.80;;;2.67;;
2257;SDS011;1136;51.574;7.706;2023-04-01T23:24:38;3.30;;;3.00;;
2257;SDS011;1136;51.574;7.706;2023-04-01T23:27:29;4.73;;;3.97;;
2257;SDS011;1136;51.574;7.706;2023-04-01T23:30:01;4.00;;;3.70;;
2257;SDS011;1136;51.574;7.706;2023-04-01T23:32:29;4.53;;;4.23;;
2257;SDS011;1136;51.574;7.706;2023-04-01T23:34:56;4.23;;;3.93;;
2257;SDS011;1136;51.574;7.706;2023-04-01T23:37:25;3.50;;;3.30;;
2257;SDS011;1136;51.574;7.706;2023-04-01T23:39:56;4.33;;;4.03;;
2257;SDS011;1136;51.574;7.706;2023-04-01T23:42:30;2.80;;;2.70;;
2257;SDS011;1136;51.574;7.706;2023-04-01T23:45:00;2.90;;;2.80;;
2257;SDS011;1136;51.574;7.706;2023-04-01T23:47:31;3.20;;;3.00;;
2257;SDS011;1136;51.574;7.706;2023-04-01T23:50:01;3.50;;;3.30;;
2257;SDS011;1136;51.574;7.706;2023-04-01T23:52:31;3.87;;;3.57;;
2257;SDS011;1136;51.574;7.706;2023-04-01T23:55:19;3.50;;;3.30;;
